EDT,Max TemperatureF,Mean TemperatureF,Min TemperatureF,Max Dew PointF,MeanDew PointF,Min DewpointF,Max Humidity, Mean Humidity, Min Humidity, Max Sea Level PressureIn, Mean Sea Level PressureIn, Min Sea Level PressureIn, Max VisibilityMiles, Mean VisibilityMiles, Min VisibilityMiles, Max Wind SpeedMPH, Mean Wind SpeedMPH, Max Gust SpeedMPH,PrecipitationIn, CloudCover, Events, WindDirDegrees
2013-3-1,37,34,32,32,29,25,87,76,65,29.90,29.82,29.74,10,10,10,18,13,25,0.00,8,,305
2013-3-2,33,30,28,25,22,21,75,69,64,29.90,29.87,29.82,10,10,10,17,9,21,0.00,7,,320
2013-3-3,35,32,28,23,21,18,75,65,52,29.93,29.86,29.82,10,10,10,22,15,30,0.00,5,Snow,302
2013-3-4,41,34,26,21,18,14,69,56,42,30.04,29.99,29.93,10,10,10,24,14,33,0.00,2,,295
2013-3-5,48,40,32,32,23,19,100,52,34,30.05,29.94,29.78,10,9,1,15,6,22,0.00,5,Rain-Snow,99
2013-3-6,39,36,32,34,32,30,100,91,75,30.03,29.82,29.66,10,5,0,16,7,26,0.53,7,Rain-Snow,349
2013-3-7,41,37,33,30,30,28,87,74,61,30.18,30.11,30.03,10,10,10,20,9,25,0.00,6,,314
2013-3-8,42,37,32,32,30,28,87,76,65,30.31,30.23,30.17,10,10,10,25,15,34,0.00,4,Snow,313
2013-3-9,55,40,26,30,28,25,100,65,31,30.37,30.30,30.25,10,10,10,10,5,,0.00,1,,304
2013-3-10,60,44,28,34,30,27,93,57,34,30.28,30.23,30.15,10,10,10,15,4,22,0.00,1,,160
2013-3-11,55,48,42,48,37,27,82,64,43,30.16,30.03,29.85,10,10,10,18,9,24,0.00,3,,150
2013-3-12,55,46,37,54,42,30,100,79,61,29.98,29.83,29.75,10,9,4,23,14,30,0.58,6,Rain,289
2013-3-13,44,37,30,32,27,21,93,67,43,30.07,29.96,29.91,10,10,2,26,11,34,0.00,4,Rain-Snow,275
2013-3-14,41,36,30,23,20,18,69,56,42,30.14,30.08,30.05,10,10,10,26,17,38,0.00,4,Snow,291
2013-3-15,55,44,32,34,27,19,66,53,40,30.10,29.93,29.78,10,10,10,17,7,25,0.00,2,,253
2013-3-16,55,45,35,41,36,32,93,77,58,29.91,29.76,29.62,10,9,5,10,2,,0.00,7,Rain,50
2013-3-17,37,34,32,34,30,27,100,83,65,30.24,30.10,29.91,10,8,4,8,2,,0.00,8,,30
2013-3-18,33,32,30,32,31,28,100,98,81,30.28,30.13,29.88,10,5,1,17,4,22,0.13,8,Rain-Snow,113
2013-3-19,55,44,32,41,28,14,100,68,28,29.92,29.80,29.72,10,6,0,29,6,40,0.24,4,Fog,263
2013-3-20,48,40,32,30,19,14,87,45,30,29.98,29.88,29.76,10,10,10,21,12,29,0.00,3,,275
2013-3-21,33,30,26,30,17,12,87,60,47,29.89,29.82,29.78,10,10,10,24,12,30,0.00,5,,305
2013-3-22,44,35,26,23,19,14,64,53,39,30.00,29.91,29.88,10,10,10,22,10,29,0.00,1,,285
2013-3-23,51,38,24,27,23,19,86,55,33,30.02,29.97,29.91,10,10,10,17,5,22,0.00,1,,313
2013-3-24,39,32,26,32,27,23,100,82,52,30.00,29.83,29.62,10,7,1,7,2,,0.00,3,Rain-Snow,53
2013-3-25,37,34,32,34,33,32,100,97,81,29.70,29.57,29.52,10,4,1,6,1,,0.47,8,Rain-Snow,246
2013-3-26,44,38,32,32,31,28,100,77,61,30.02,29.86,29.70,10,10,10,22,7,28,0.00,6,,302
2013-3-27,44,38,33,32,30,27,87,72,57,30.13,30.07,30.01,10,10,10,24,12,34,0.00,4,Rain,288
2013-3-28,44,40,35,32,30,28,87,70,61,30.24,30.15,30.09,10,10,10,21,10,28,0.00,7,,296
2013-3-29,53,44,35,34,31,28,87,61,38,30.25,30.20,30.14,10,10,10,14,5,23,0.00,7,,287
2013-3-30,59,44,30,32,29,27,93,57,33,30.23,30.16,30.09,10,10,10,13,3,20,0.00,2,,285
2013-3-31,48,42,35,46,39,28,100,87,65,30.08,29.88,29.75,10,8,0,7,1,,0.08,6,Fog-Rain,174